Time;durP1;ratioP1;P1;durP2;ratioP2;P2;SDS_P1;SDS_P2;PMS_P1;PMS_P2;Temp;Humidity;BMP_temperature;BMP_pressure;BME280_temperature;BME280_humidity;BME280_pressure;Samples;Min_cycle;Max_cycle;Signal;HPM_P1;HPM_P2
2021/09/08 00:01:22;;;;;;;5.93;4.60;;;21.20;67.20;;;;;;5107486;28;20087;-74
2021/09/08 00:03:48;;;;;;;4.88;4.38;;;21.20;67.70;;;;;;5098731;28;20027;-74
2021/09/08 00:06:14;;;;;;;4.85;4.40;;;21.20;67.70;;;;;;5087238;28;20024;-74
2021/09/08 00:08:40;;;;;;;4.90;4.40;;;21.20;67.50;;;;;;5084499;28;20050;-74
2021/09/08 00:11:05;;;;;;;5.68;4.15;;;21.20;67.30;;;;;;5087728;28;20499;-74
2021/09/08 00:13:31;;;;;;;5.32;4.28;;;21.20;67.50;;;;;;5083822;28;20244;-74
2021/09/08 00:15:57;;;;;;;4.82;4.32;;;21.20;67.20;;;;;;5087166;28;20012;-73
2021/09/08 00:18:23;;;;;;;5.43;4.60;;;21.20;67.50;;;;;;5084635;28;20024;-74
2021/09/08 00:20:49;;;;;;;4.35;4.03;;;21.20;67.60;;;;;;5086092;28;20054;-74
2021/09/08 00:23:15;;;;;;;5.10;4.30;;;21.20;68.40;;;;;;5066992;28;20107;-74
2021/09/08 00:25:41;;;;;;;7.03;4.63;;;21.20;69.00;;;;;;5086539;28;20020;-74
2021/09/08 00:28:06;;;;;;;4.97;4.47;;;21.10;69.20;;;;;;5084044;28;20028;-74
2021/09/08 00:30:33;;;;;;;5.25;4.20;;;21.10;68.90;;;;;;5068062;28;20016;-74
2021/09/08 00:32:58;;;;;;;4.43;4.07;;;21.10;67.80;;;;;;5084472;28;20046;-74
2021/09/08 00:35:25;;;;;;;5.60;4.72;;;21.10;67.40;;;;;;5086871;28;20395;-74
2021/09/08 00:37:50;;;;;;;7.22;4.53;;;21.10;67.40;;;;;;5087365;28;20145;-74
2021/09/08 00:40:16;;;;;;;5.43;4.93;;;21.10;67.40;;;;;;5106977;28;20027;-74
2021/09/08 00:42:43;;;;;;;4.30;3.90;;;21.20;67.60;;;;;;5104989;28;20088;-74
2021/09/08 00:45:10;;;;;;;4.93;4.40;;;21.10;68.50;;;;;;5088011;28;20236;-74
2021/09/08 00:47:36;;;;;;;5.22;4.72;;;21.10;67.60;;;;;;5086571;28;20452;-73
2021/09/08 00:50:03;;;;;;;5.43;4.60;;;21.10;68.70;;;;;;5086334;28;20028;-74
2021/09/08 00:52:29;;;;;;;7.65;5.30;;;21.10;68.50;;;;;;5084691;28;20028;-74
2021/09/08 00:54:56;;;;;;;10.07;4.63;;;21.00;68.20;;;;;;5085543;28;20101;-74
2021/09/08 00:57:22;;;;;;;5.13;4.63;;;21.10;67.60;;;;;;5084523;28;20051;-74
2021/09/08 00:59:48;;;;;;;5.55;4.80;;;21.00;68.40;;;;;;5104980;28;20038;-74
2021/09/08 01:02:14;;;;;;;5.68;4.03;;;21.10;68.90;;;;;;5107039;28;20028;-74
2021/09/08 01:04:40;;;;;;;6.15;4.68;;;21.00;68.10;;;;;;5107157;28;20530;-74
2021/09/08 01:07:07;;;;;;;5.10;4.60;;;21.00;67.80;;;;;;5108295;28;20459;-74
2021/09/08 01:09:33;;;;;;;5.07;4.50;;;20.90;68.60;;;;;;5109449;28;20088;-74
2021/09/08 01:11:59;;;;;;;4.95;4.53;;;20.80;68.80;;;;;;5105730;28;20475;-74
2021/09/08 01:14:25;;;;;;;8.10;4.63;;;20.80;69.40;;;;;;5106151;28;20548;-74
2021/09/08 01:16:54;;;;;;;4.85;4.45;;;20.80;68.70;;;;;;5105497;28;20189;-74
2021/09/08 01:19:20;;;;;;;5.03;4.63;;;20.80;69.10;;;;;;5086936;28;20096;-74
2021/09/08 01:21:45;;;;;;;8.18;4.80;;;20.80;69.00;;;;;;5105357;28;20043;-74
2021/09/08 01:24:12;;;;;;;5.90;4.95;;;20.80;69.00;;;;;;5106212;28;20418;-74
2021/09/08 01:26:39;;;;;;;5.18;4.68;;;20.80;68.70;;;;;;5086119;28;20451;-74
2021/09/08 01:29:05;;;;;;;6.85;4.78;;;20.80;68.80;;;;;;5105297;28;20031;-74
2021/09/08 01:31:31;;;;;;;5.15;4.65;;;20.80;69.00;;;;;;5104524;28;20181;-74
2021/09/08 01:33:57;;;;;;;6.10;4.63;;;20.80;69.00;;;;;;5105203;28;20611;-74
2021/09/08 01:36:23;;;;;;;6.63;4.90;;;20.80;69.10;;;;;;5109655;28;20036;-73
2021/09/08 01:38:49;;;;;;;6.38;4.93;;;20.80;69.70;;;;;;5108993;28;20077;-74
2021/09/08 01:41:15;;;;;;;8.68;5.30;;;20.80;69.50;;;;;;5112278;28;20032;-73
2021/09/08 01:43:40;;;;;;;5.20;4.55;;;20.80;70.30;;;;;;5114945;28;20077;-73
2021/09/08 01:46:06;;;;;;;6.32;5.25;;;20.80;71.10;;;;;;5115082;28;20019;-73
2021/09/08 01:48:32;;;;;;;4.97;4.47;;;20.80;70.30;;;;;;5115131;28;20018;-74
2021/09/08 01:50:58;;;;;;;5.57;4.85;;;20.80;70.00;;;;;;5114995;28;20570;-74
2021/09/08 01:53:23;;;;;;;6.50;4.75;;;20.80;70.20;;;;;;5114996;28;20016;-73
2021/09/08 01:55:50;;;;;;;5.47;4.97;;;20.80;70.70;;;;;;5114900;28;20031;-74
2021/09/08 01:58:16;;;;;;;5.88;5.22;;;20.80;70.70;;;;;;5114978;28;20092;-73
2021/09/08 02:00:43;;;;;;;5.47;4.90;;;20.80;70.60;;;;;;5114655;28;20027;-74
2021/09/08 02:03:08;;;;;;;6.32;4.88;;;20.80;70.70;;;;;;5095764;28;20394;-73
2021/09/08 02:05:35;;;;;;;6.68;5.05;;;20.80;70.80;;;;;;5096485;28;20019;-73
2021/09/08 02:08:01;;;;;;;6.13;5.00;;;20.70;71.20;;;;;;5096604;28;20390;-74
2021/09/08 02:10:26;;;;;;;5.25;4.78;;;20.70;71.10;;;;;;5114777;28;20489;-74
2021/09/08 02:12:52;;;;;;;8.50;4.97;;;20.70;72.80;;;;;;5114410;28;20055;-74
2021/09/08 02:15:18;;;;;;;5.13;4.72;;;20.80;74.00;;;;;;5096204;28;20100;-74
2021/09/08 02:17:44;;;;;;;9.10;4.70;;;20.80;73.10;;;;;;5109098;28;20065;-73
2021/09/08 02:20:10;;;;;;;6.93;4.75;;;20.80;72.10;;;;;;5095875;28;20498;-74
2021/09/08 02:22:36;;;;;;;6.72;4.88;;;20.80;72.10;;;;;;5114551;28;20032;-74
2021/09/08 02:25:03;;;;;;;5.07;4.57;;;20.70;71.90;;;;;;5114267;28;20479;-74
2021/09/08 02:27:29;;;;;;;5.25;4.72;;;20.70;71.60;;;;;;5114408;28;20092;-73
2021/09/08 02:29:54;;;;;;;9.27;4.50;;;20.70;71.50;;;;;;5114208;28;20528;-73
2021/09/08 02:32:20;;;;;;;6.35;5.05;;;20.70;71.80;;;;;;5114310;28;20031;-73
2021/09/08 02:34:46;;;;;;;8.98;5.20;;;20.70;71.70;;;;;;5099227;28;20012;-73
2021/09/08 02:37:12;;;;;;;5.25;4.75;;;20.60;71.90;;;;;;5093735;28;20020;-74
2021/09/08 02:39:38;;;;;;;4.68;4.18;;;20.60;72.50;;;;;;5094988;28;20033;-73
2021/09/08 02:42:05;;;;;;;6.38;4.90;;;20.50;72.80;;;;;;5095815;28;20019;-73
2021/09/08 02:44:31;;;;;;;5.72;5.13;;;20.50;72.70;;;;;;5113916;28;20478;-73
2021/09/08 02:46:57;;;;;;;6.35;4.97;;;20.50;72.50;;;;;;5113967;28;20027;-73
2021/09/08 02:49:22;;;;;;;5.45;4.95;;;20.60;72.30;;;;;;5113722;28;20028;-74
2021/09/08 02:51:48;;;;;;;6.55;4.90;;;20.60;72.00;;;;;;5113717;28;20483;-73
2021/09/08 02:54:14;;;;;;;4.80;4.32;;;20.50;71.70;;;;;;5113074;28;20103;-74
2021/09/08 02:56:40;;;;;;;5.28;4.75;;;20.60;71.30;;;;;;5113831;28;20389;-74
2021/09/08 02:59:05;;;;;;;5.65;4.88;;;20.60;71.40;;;;;;5113405;28;20394;-74
2021/09/08 03:01:31;;;;;;;6.63;4.85;;;20.50;71.80;;;;;;5113916;28;20028;-74
2021/09/08 03:03:57;;;;;;;6.78;4.75;;;20.50;72.50;;;;;;5105747;28;20024;-74
2021/09/08 03:06:22;;;;;;;6.68;5.20;;;20.40;72.80;;;;;;5104459;28;20047;-74
2021/09/08 03:08:48;;;;;;;7.00;5.28;;;20.40;73.10;;;;;;5113463;28;20019;-74
2021/09/08 03:11:14;;;;;;;6.80;4.95;;;20.40;73.20;;;;;;5113449;28;20031;-74
2021/09/08 03:13:39;;;;;;;5.57;4.47;;;20.50;73.10;;;;;;5095125;28;20031;-74
2021/09/08 03:16:05;;;;;;;5.28;4.78;;;20.40;73.10;;;;;;5094830;28;20031;-74
2021/09/08 03:18:31;;;;;;;9.65;4.93;;;20.40;73.10;;;;;;5113307;28;20023;-74
2021/09/08 03:20:56;;;;;;;5.65;4.88;;;20.40;73.10;;;;;;5113285;28;20138;-74
2021/09/08 03:23:22;;;;;;;4.93;4.43;;;20.40;73.30;;;;;;5112962;28;20028;-73
2021/09/08 03:25:48;;;;;;;6.70;5.25;;;20.40;73.40;;;;;;5113052;28;20514;-74
2021/09/08 03:28:13;;;;;;;8.07;5.22;;;20.30;73.30;;;;;;5114182;28;20015;-73
2021/09/08 03:30:39;;;;;;;4.55;4.15;;;20.30;73.50;;;;;;5114506;28;20024;-73
2021/09/08 03:33:05;;;;;;;5.63;4.60;;;20.30;73.60;;;;;;5113869;28;20389;-73
2021/09/08 03:35:31;;;;;;;5.85;5.00;;;20.30;73.50;;;;;;5093974;28;20031;-73
2021/09/08 03:37:56;;;;;;;5.10;4.63;;;20.20;73.70;;;;;;5093928;28;20028;-73
2021/09/08 03:40:22;;;;;;;7.03;5.10;;;20.20;74.10;;;;;;5093843;28;20485;-73
2021/09/08 03:42:48;;;;;;;6.43;4.20;;;20.20;74.10;;;;;;5093597;28;20020;-73
2021/09/08 03:45:14;;;;;;;6.50;5.45;;;20.20;74.20;;;;;;5104906;28;20073;-73
2021/09/08 03:47:41;;;;;;;5.22;4.72;;;20.20;74.20;;;;;;5114161;28;20019;-73
2021/09/08 03:50:26;;;;;;;8.23;5.25;;;20.10;74.20;;;;;;5096033;28;20425;-73
2021/09/08 03:52:52;;;;;;;6.03;5.32;;;20.10;74.60;;;;;;5114092;28;20080;-73
2021/09/08 03:55:17;;;;;;;5.28;4.78;;;20.00;74.70;;;;;;5114013;28;20049;-73
2021/09/08 03:57:43;;;;;;;5.97;4.70;;;20.00;74.20;;;;;;5113991;28;20026;-73
2021/09/08 04:00:09;;;;;;;5.82;5.20;;;20.00;74.20;;;;;;5113646;28;20027;-73
2021/09/08 04:02:36;;;;;;;6.20;5.07;;;19.90;74.60;;;;;;5092984;28;20032;-74
2021/09/08 04:05:03;;;;;;;5.35;4.85;;;19.80;75.20;;;;;;5108928;28;20020;-74
2021/09/08 04:07:28;;;;;;;8.65;4.90;;;19.80;75.40;;;;;;5113251;28;20024;-74
2021/09/08 04:09:54;;;;;;;6.60;4.93;;;19.80;75.20;;;;;;5113041;28;20538;-74
2021/09/08 04:12:20;;;;;;;5.25;4.68;;;19.80;74.90;;;;;;5113117;28;20401;-74
2021/09/08 04:14:46;;;;;;;5.75;5.05;;;19.70;74.70;;;;;;5113316;28;20016;-74
2021/09/08 04:17:12;;;;;;;6.55;5.22;;;19.70;74.70;;;;;;5113448;28;20031;-73
2021/09/08 04:19:38;;;;;;;5.32;4.82;;;19.70;75.00;;;;;;5112957;28;20088;-74
2021/09/08 04:22:04;;;;;;;6.32;5.72;;;19.70;74.50;;;;;;5112565;28;20107;-74
2021/09/08 04:24:29;;;;;;;5.40;4.72;;;19.70;74.50;;;;;;5112268;28;20051;-74
2021/09/08 04:26:55;;;;;;;5.50;4.88;;;19.60;74.60;;;;;;5112833;28;20490;-74
2021/09/08 04:29:21;;;;;;;5.05;4.55;;;19.60;74.40;;;;;;5112666;28;20031;-74
2021/09/08 04:31:47;;;;;;;7.47;5.25;;;19.60;74.40;;;;;;5094069;28;20016;-74
2021/09/08 04:34:13;;;;;;;9.45;5.30;;;19.50;74.40;;;;;;5112472;28;20031;-74
2021/09/08 04:36:38;;;;;;;6.82;4.75;;;19.50;74.30;;;;;;5112059;28;20101;-74
2021/09/08 04:39:04;;;;;;;6.35;5.60;;;19.50;73.80;;;;;;5112746;28;20055;-75
2021/09/08 04:41:30;;;;;;;7.22;5.50;;;19.50;73.80;;;;;;5112832;28;20483;-74
2021/09/08 04:43:57;;;;;;;6.05;5.13;;;19.50;73.90;;;;;;5112048;28;20371;-74
2021/09/08 04:46:23;;;;;;;6.63;5.15;;;19.50;73.90;;;;;;5112062;28;20015;-74
2021/09/08 04:48:49;;;;;;;6.13;5.40;;;19.40;75.00;;;;;;5112256;28;21090;-74
2021/09/08 04:51:14;;;;;;;5.47;4.50;;;19.30;74.30;;;;;;5112127;28;20098;-74
2021/09/08 04:53:40;;;;;;;6.25;5.18;;;19.40;74.20;;;;;;5111775;28;20492;-74
2021/09/08 04:56:06;;;;;;;6.35;4.97;;;19.40;73.90;;;;;;5111861;28;20389;-74
2021/09/08 04:58:32;;;;;;;7.78;5.65;;;19.40;73.70;;;;;;5111939;28;20379;-74
2021/09/08 05:00:57;;;;;;;6.18;5.57;;;19.40;73.60;;;;;;5111492;28;20020;-74
2021/09/08 05:03:23;;;;;;;6.25;5.65;;;19.30;73.80;;;;;;5111284;28;20482;-74
2021/09/08 05:05:49;;;;;;;4.82;4.43;;;19.30;73.90;;;;;;5111409;28;20118;-74
2021/09/08 05:08:15;;;;;;;6.80;4.82;;;19.30;73.80;;;;;;5112027;28;20026;-74
2021/09/08 05:10:41;;;;;;;6.05;5.45;;;19.40;73.70;;;;;;5111983;28;20094;-74
2021/09/08 05:13:06;;;;;;;5.97;5.38;;;19.40;73.40;;;;;;5111690;28;20027;-74
2021/09/08 05:15:32;;;;;;;6.78;4.85;;;19.40;73.50;;;;;;5112314;28;20114;-74
2021/09/08 05:17:58;;;;;;;6.65;5.05;;;19.50;73.20;;;;;;5116226;28;20016;-74
2021/09/08 05:20:24;;;;;;;5.63;5.13;;;19.40;73.30;;;;;;5114865;28;20047;-74
2021/09/08 05:22:49;;;;;;;6.65;5.25;;;19.40;73.50;;;;;;5097274;28;20437;-74
2021/09/08 05:25:15;;;;;;;5.75;5.05;;;19.40;73.50;;;;;;5115480;28;20058;-74
2021/09/08 05:27:41;;;;;;;8.02;5.35;;;19.40;73.30;;;;;;5115657;28;20016;-74
2021/09/08 05:30:07;;;;;;;5.85;5.22;;;19.50;73.30;;;;;;5115524;28;20051;-74
2021/09/08 05:32:33;;;;;;;5.78;5.28;;;19.50;73.10;;;;;;5115990;28;20034;-74
2021/09/08 05:34:58;;;;;;;6.20;5.13;;;19.50;72.90;;;;;;5106967;28;20032;-74
2021/09/08 05:37:24;;;;;;;5.88;5.20;;;19.50;72.70;;;;;;5109707;28;20039;-74
2021/09/08 05:39:50;;;;;;;5.90;5.28;;;19.60;72.80;;;;;;5114373;28;20114;-74
2021/09/08 05:42:16;;;;;;;10.35;5.53;;;19.60;72.80;;;;;;5114477;28;20016;-74
2021/09/08 05:44:42;;;;;;;7.70;5.18;;;19.60;72.70;;;;;;5114789;28;20043;-74
2021/09/08 05:47:08;;;;;;;5.68;5.13;;;19.60;72.70;;;;;;5115766;28;20028;-74
2021/09/08 05:49:33;;;;;;;6.15;5.00;;;19.70;72.80;;;;;;5097791;28;20451;-74
2021/09/08 05:51:59;;;;;;;7.22;5.47;;;19.60;72.70;;;;;;5097459;28;20031;-74
2021/09/08 05:54:25;;;;;;;6.15;4.85;;;19.60;72.60;;;;;;5097526;28;20024;-74
2021/09/08 05:56:51;;;;;;;8.93;5.35;;;19.60;72.60;;;;;;5103565;28;20114;-74
2021/09/08 05:59:17;;;;;;;7.00;5.20;;;19.70;72.50;;;;;;5075488;28;20103;-74
2021/09/08 06:01:43;;;;;;;8.30;4.88;;;19.60;72.70;;;;;;5093276;28;20085;-75
2021/09/08 06:04:08;;;;;;;10.10;5.25;;;19.60;73.20;;;;;;5101489;28;20020;-75
2021/09/08 06:06:34;;;;;;;6.32;5.30;;;19.60;73.30;;;;;;5112649;28;20024;-75
2021/09/08 06:09:00;;;;;;;5.90;5.30;;;19.60;73.40;;;;;;5094655;28;20023;-75
2021/09/08 06:11:25;;;;;;;5.47;4.97;;;19.60;73.30;;;;;;5112872;28;20027;-75
2021/09/08 06:13:53;;;;;;;8.70;5.88;;;19.60;73.10;;;;;;5114260;28;20027;-76
2021/09/08 06:16:21;;;;;;;5.32;4.53;;;19.70;73.00;;;;;;5096218;28;20050;-75
2021/09/08 06:18:47;;;;;;;6.95;5.45;;;19.80;72.90;;;;;;5114643;28;20500;-75
2021/09/08 06:21:17;;;;;;;9.40;5.22;;;19.80;73.70;;;;;;5095299;28;20104;-75
2021/09/08 06:23:43;;;;;;;5.72;5.13;;;19.80;72.70;;;;;;5114147;28;20482;-75
2021/09/08 06:26:09;;;;;;;7.43;5.13;;;19.90;73.00;;;;;;5114149;28;20023;-75
2021/09/08 06:28:35;;;;;;;8.20;5.32;;;19.90;73.10;;;;;;5112572;28;20027;-75
2021/09/08 06:31:01;;;;;;;10.88;5.57;;;20.10;73.30;;;;;;5113726;28;20047;-75
2021/09/08 06:33:26;;;;;;;12.25;5.75;;;20.10;72.70;;;;;;5095343;28;20141;-75
2021/09/08 06:35:52;;;;;;;9.48;5.88;;;20.20;72.50;;;;;;5113402;28;20069;-75
2021/09/08 06:38:18;;;;;;;8.85;4.88;;;20.20;72.30;;;;;;5113400;28;20435;-75
2021/09/08 06:40:44;;;;;;;8.98;5.30;;;20.20;71.70;;;;;;5095128;28;20093;-75
2021/09/08 06:43:09;;;;;;;6.40;5.03;;;20.30;72.30;;;;;;5113627;28;20020;-75
2021/09/08 06:45:35;;;;;;;6.07;4.95;;;20.30;72.30;;;;;;5113522;28;20367;-75
2021/09/08 06:48:01;;;;;;;10.20;5.43;;;20.40;72.00;;;;;;5113528;28;20047;-75
2021/09/08 06:50:27;;;;;;;5.75;5.10;;;20.40;71.90;;;;;;5113327;28;20307;-75
2021/09/08 06:52:52;;;;;;;8.30;5.18;;;20.50;72.20;;;;;;5113086;28;20032;-75
2021/09/08 06:55:18;;;;;;;15.88;5.95;;;20.50;72.30;;;;;;5113144;28;20028;-75
2021/09/08 06:57:44;;;;;;;12.77;5.72;;;20.50;72.30;;;;;;5094756;28;20106;-75
2021/09/08 07:00:11;;;;;;;13.18;6.38;;;20.60;72.80;;;;;;5113214;28;20032;-74
2021/09/08 07:02:36;;;;;;;6.88;5.38;;;20.60;72.90;;;;;;5113016;28;20047;-74
2021/09/08 07:05:03;;;;;;;10.30;5.68;;;20.60;72.70;;;;;;5111729;28;20467;-74
2021/09/08 07:07:29;;;;;;;7.45;4.80;;;20.70;72.10;;;;;;5110196;28;20495;-75
2021/09/08 07:09:54;;;;;;;11.38;5.88;;;20.80;72.00;;;;;;5112710;28;20138;-75
2021/09/08 07:12:21;;;;;;;5.43;4.93;;;20.90;72.90;;;;;;5112594;28;20016;-75
2021/09/08 07:14:48;;;;;;;5.82;5.30;;;21.00;72.80;;;;;;5094490;28;20020;-75
2021/09/08 07:17:14;;;;;;;10.55;5.70;;;21.00;72.50;;;;;;5107962;28;20043;-75
2021/09/08 07:19:40;;;;;;;8.50;5.07;;;21.10;70.90;;;;;;5095146;28;20113;-74
2021/09/08 07:22:08;;;;;;;10.77;6.00;;;21.20;70.90;;;;;;5112700;28;20028;-75
2021/09/08 07:24:34;;;;;;;10.38;5.97;;;21.40;70.30;;;;;;5112025;28;20160;-74
2021/09/08 07:27:00;;;;;;;5.55;4.90;;;21.50;71.50;;;;;;5112427;28;20110;-75
2021/09/08 07:29:26;;;;;;;9.20;4.90;;;21.50;71.60;;;;;;5112261;28;20020;-74
2021/09/08 07:31:52;;;;;;;8.18;5.15;;;21.50;72.30;;;;;;5111871;28;20024;-74
2021/09/08 07:34:18;;;;;;;10.23;5.57;;;21.60;72.80;;;;;;5111536;28;20020;-74
2021/09/08 07:36:44;;;;;;;10.05;6.00;;;21.60;73.90;;;;;;5109446;28;20030;-74
2021/09/08 07:39:10;;;;;;;9.98;5.28;;;21.70;72.20;;;;;;5094223;28;20016;-74
2021/09/08 07:41:39;;;;;;;6.07;4.90;;;21.80;67.10;;;;;;5112985;28;20035;-74
2021/09/08 07:44:04;;;;;;;7.05;5.20;;;21.90;67.60;;;;;;5113542;28;20063;-75
2021/09/08 07:46:30;;;;;;;11.00;4.88;;;22.00;66.90;;;;;;5113699;28;20539;-74
2021/09/08 07:48:56;;;;;;;6.50;5.15;;;22.00;66.80;;;;;;5113173;28;20026;-74
2021/09/08 07:51:22;;;;;;;8.23;5.25;;;22.10;65.30;;;;;;5108255;28;20014;-76
2021/09/08 07:53:48;;;;;;;12.48;5.75;;;22.20;66.40;;;;;;5092954;28;20024;-75
2021/09/08 07:56:19;;;;;;;9.85;4.97;;;22.20;67.00;;;;;;5110731;28;20065;-75
2021/09/08 07:58:53;;;;;;;5.82;5.20;;;22.30;66.30;;;;;;5092971;28;20098;-75
2021/09/08 08:01:19;;;;;;;7.78;5.63;;;22.40;64.90;;;;;;5093367;28;20028;-75
2021/09/08 08:03:45;;;;;;;7.82;5.93;;;22.50;64.50;;;;;;5110623;28;20076;-74
2021/09/08 08:06:11;;;;;;;9.40;5.45;;;22.50;63.60;;;;;;5111005;28;20027;-74
2021/09/08 08:08:36;;;;;;;7.70;5.50;;;22.60;63.20;;;;;;5110971;28;20085;-74
2021/09/08 08:11:02;;;;;;;9.55;5.55;;;22.70;64.00;;;;;;5111474;28;20052;-75
2021/09/08 08:13:28;;;;;;;6.90;5.30;;;22.70;64.40;;;;;;5112322;28;20110;-75
2021/09/08 08:15:54;;;;;;;12.38;5.43;;;22.70;63.00;;;;;;5112126;28;20034;-75
2021/09/08 08:18:20;;;;;;;6.45;5.03;;;22.70;62.50;;;;;;5112384;28;20436;-75
2021/09/08 08:20:46;;;;;;;5.63;5.03;;;22.80;62.70;;;;;;5112123;28;20090;-75
2021/09/08 08:23:12;;;;;;;7.05;5.43;;;23.00;61.00;;;;;;5111913;28;20250;-75
2021/09/08 08:25:38;;;;;;;5.35;4.85;;;23.20;61.10;;;;;;5112311;28;20429;-74
2021/09/08 08:28:07;;;;;;;5.78;5.28;;;23.40;60.20;;;;;;5112077;28;20447;-75
2021/09/08 08:30:33;;;;;;;6.78;4.70;;;23.40;61.30;;;;;;5111947;28;20028;-75
2021/09/08 08:33:00;;;;;;;5.93;4.82;;;23.50;61.50;;;;;;5112007;28;20375;-75
2021/09/08 08:35:26;;;;;;;5.43;4.93;;;23.60;58.90;;;;;;5112115;28;20051;-75
2021/09/08 08:37:52;;;;;;;4.85;4.45;;;23.50;58.80;;;;;;5093653;28;20465;-75
2021/09/08 08:40:20;;;;;;;8.43;4.90;;;23.50;59.10;;;;;;5111954;28;20024;-75
2021/09/08 08:42:46;;;;;;;6.25;5.47;;;23.50;58.80;;;;;;5093696;28;20398;-75
2021/09/08 08:45:13;;;;;;;6.82;5.03;;;23.60;60.20;;;;;;5111829;28;20039;-75
2021/09/08 08:47:39;;;;;;;6.07;4.95;;;23.70;59.90;;;;;;5111847;28;20103;-75
2021/09/08 08:50:09;;;;;;;7.25;5.05;;;23.80;60.10;;;;;;5112196;28;20200;-75
2021/09/08 08:52:35;;;;;;;8.18;4.57;;;23.80;58.60;;;;;;5118268;28;20015;-75
2021/09/08 08:55:01;;;;;;;8.73;5.05;;;23.80;59.30;;;;;;5118562;28;20023;-75
2021/09/08 08:57:28;;;;;;;6.05;5.45;;;23.80;58.40;;;;;;5118470;27;20024;-75
2021/09/08 08:59:54;;;;;;;5.15;4.75;;;24.00;57.60;;;;;;5118774;28;20019;-75
2021/09/08 09:02:23;;;;;;;8.35;5.93;;;24.00;57.50;;;;;;5118445;28;20061;-75
2021/09/08 09:04:50;;;;;;;5.57;4.75;;;24.00;58.20;;;;;;5099963;28;20036;-75
2021/09/08 09:07:22;;;;;;;8.05;4.68;;;24.00;57.10;;;;;;5118433;28;20024;-75
2021/09/08 09:10:10;;;;;;;6.82;4.72;;;24.00;57.90;;;;;;5118520;28;20104;-74
2021/09/08 09:12:39;;;;;;;6.50;4.63;;;24.00;58.60;;;;;;5117891;28;20027;-74
2021/09/08 09:15:10;;;;;;;5.43;4.80;;;23.90;59.10;;;;;;5118347;28;20027;-75
2021/09/08 09:17:37;;;;;;;5.45;4.95;;;23.80;59.90;;;;;;5118367;28;20022;-74
2021/09/08 09:20:09;;;;;;;5.10;4.60;;;23.80;60.10;;;;;;5118334;28;20130;-75
2021/09/08 09:22:39;;;;;;;5.22;4.80;;;24.10;58.60;;;;;;5118351;28;20049;-74
2021/09/08 09:25:07;;;;;;;4.63;4.25;;;24.10;57.10;;;;;;5118433;27;20023;-75
2021/09/08 09:27:38;;;;;;;4.95;4.28;;;24.30;58.20;;;;;;5118241;28;20047;-75
2021/09/08 09:30:10;;;;;;;5.82;4.82;;;24.40;56.70;;;;;;5118236;28;20383;-74
2021/09/08 09:32:37;;;;;;;;;;;24.40;56.40;;;;;;5118635;28;20023;-75
2021/09/08 09:35:04;;;;;;;7.47;4.90;;;24.30;54.70;;;;;;5118018;28;19904;-74
2021/09/08 09:37:34;;;;;;;6.32;4.88;;;24.30;55.50;;;;;;5118223;28;20030;-74
2021/09/08 09:40:05;;;;;;;6.88;5.25;;;24.30;56.40;;;;;;5118227;28;20024;-74
2021/09/08 09:42:32;;;;;;;5.90;4.60;;;24.30;57.30;;;;;;5118029;28;20584;-75
2021/09/08 09:45:06;;;;;;;6.13;4.82;;;24.40;57.00;;;;;;5118111;28;20378;-74
2021/09/08 09:47:37;;;;;;;6.55;5.07;;;24.70;57.80;;;;;;5118245;28;20090;-75
2021/09/08 09:50:06;;;;;;;4.70;4.28;;;24.60;56.40;;;;;;5118148;28;20026;-75
2021/09/08 09:52:33;;;;;;;6.72;4.68;;;24.60;57.80;;;;;;5117988;28;20024;-74
2021/09/08 09:55:02;;;;;;;5.13;4.63;;;24.60;56.70;;;;;;5118032;28;20159;-74
2021/09/08 09:57:28;;;;;;;5.82;4.38;;;24.60;56.50;;;;;;5118031;28;20028;-75
2021/09/08 09:59:54;;;;;;;5.70;4.47;;;24.50;57.80;;;;;;5118015;28;20016;-75
2021/09/08 10:02:19;;;;;;;11.73;5.13;;;24.60;57.90;;;;;;5116737;28;20103;-75
2021/09/08 10:04:48;;;;;;;5.18;4.68;;;24.70;56.20;;;;;;5114583;28;20023;-75
2021/09/08 10:07:17;;;;;;;5.18;4.68;;;24.80;57.20;;;;;;5114636;28;20069;-75
2021/09/08 10:09:44;;;;;;;8.77;5.15;;;24.80;56.00;;;;;;5114744;28;20051;-75
2021/09/08 10:12:11;;;;;;;5.82;4.53;;;24.80;57.60;;;;;;5114450;28;20111;-74
2021/09/08 10:14:37;;;;;;;5.47;4.90;;;24.80;57.20;;;;;;5114474;28;20051;-75
2021/09/08 10:17:08;;;;;;;6.00;5.07;;;24.80;57.60;;;;;;5114511;28;20031;-74
2021/09/08 10:19:33;;;;;;;6.13;4.75;;;24.80;58.10;;;;;;5109523;28;20114;-74
2021/09/08 10:22:08;;;;;;;6.53;5.40;;;24.80;58.50;;;;;;5113567;28;20039;-75
2021/09/08 10:24:33;;;;;;;4.78;4.28;;;24.80;57.60;;;;;;5114329;28;20076;-75
2021/09/08 10:27:00;;;;;;;6.97;5.13;;;24.90;58.50;;;;;;5096115;28;20499;-75
2021/09/08 10:29:29;;;;;;;8.63;4.80;;;25.00;56.80;;;;;;5113656;28;20016;-74
2021/09/08 10:31:58;;;;;;;9.48;5.50;;;25.00;55.40;;;;;;5108291;28;20046;-75
2021/09/08 10:34:25;;;;;;;5.07;4.55;;;25.30;55.80;;;;;;5111672;28;20102;-75
2021/09/08 10:36:51;;;;;;;8.25;5.00;;;25.30;53.20;;;;;;5114227;28;20042;-74
2021/09/08 10:39:19;;;;;;;4.97;4.43;;;25.30;55.40;;;;;;5114036;28;20028;-75
2021/09/08 10:41:51;;;;;;;5.35;4.68;;;25.40;55.40;;;;;;5114079;28;20023;-74
2021/09/08 10:44:19;;;;;;;5.80;5.07;;;25.40;53.70;;;;;;5114037;28;20429;-74
2021/09/08 10:46:59;;;;;;;5.47;4.25;;;25.30;53.90;;;;;;5113797;28;20096;-75
2021/09/08 10:49:38;;;;;;;5.55;4.90;;;25.30;56.30;;;;;;5114008;28;20016;-75
2021/09/08 10:52:32;;;;;;;8.63;5.40;;;25.60;54.90;;;;;;5108500;28;20493;-74
2021/09/08 10:54:57;;;;;;;8.48;5.25;;;25.80;53.20;;;;;;5111841;28;20015;-75
2021/09/08 10:57:41;;;;;;;5.57;4.85;;;25.70;52.80;;;;;;5113000;28;20501;-74
2021/09/08 11:00:13;;;;;;;5.13;4.63;;;25.60;53.90;;;;;;5113473;28;20475;-75
2021/09/08 11:02:40;;;;;;;5.65;5.07;;;25.70;54.20;;;;;;5113192;28;20064;-75
2021/09/08 11:05:06;;;;;;;5.70;4.53;;;25.70;53.20;;;;;;5113027;28;20020;-74
2021/09/08 11:07:32;;;;;;;6.28;4.82;;;25.80;54.20;;;;;;5113151;28;20027;-74
2021/09/08 11:09:58;;;;;;;6.47;5.00;;;25.80;55.00;;;;;;5113630;28;20023;-75
2021/09/08 11:12:46;;;;;;;9.82;5.38;;;25.90;54.50;;;;;;5112932;28;20110;-75
2021/09/08 11:15:12;;;;;;;7.15;4.15;;;25.80;55.00;;;;;;5112830;28;21161;-74
2021/09/08 11:17:39;;;;;;;6.57;4.80;;;25.90;56.90;;;;;;5113315;28;20019;-74
2021/09/08 11:20:06;;;;;;;6.53;4.35;;;25.90;53.60;;;;;;5113268;28;20086;-74
2021/09/08 11:22:32;;;;;;;5.15;4.68;;;25.90;54.60;;;;;;5113171;28;20451;-75
2021/09/08 11:25:09;;;;;;;5.65;5.15;;;25.80;54.90;;;;;;5113110;28;20035;-75
2021/09/08 11:27:37;;;;;;;8.02;4.32;;;25.90;56.00;;;;;;5113167;28;20444;-75
2021/09/08 11:30:06;;;;;;;6.05;4.32;;;26.00;55.60;;;;;;5113108;28;20386;-75
2021/09/08 11:32:49;;;;;;;5.93;4.65;;;26.10;55.30;;;;;;5112948;28;20024;-75
2021/09/08 11:35:14;;;;;;;5.00;4.50;;;26.10;54.50;;;;;;5094652;28;20059;-75
2021/09/08 11:37:44;;;;;;;8.63;5.07;;;26.30;53.00;;;;;;5113093;28;20485;-75
2021/09/08 11:40:10;;;;;;;4.35;3.92;;;26.20;54.20;;;;;;5112817;28;20016;-74
2021/09/08 11:42:42;;;;;;;4.85;4.45;;;26.20;52.80;;;;;;5094331;28;20403;-74
2021/09/08 11:45:09;;;;;;;5.47;4.97;;;26.20;56.10;;;;;;5112684;28;20016;-74
2021/09/08 11:47:34;;;;;;;5.28;4.63;;;26.20;55.50;;;;;;5112877;28;20383;-74
2021/09/08 11:50:01;;;;;;;4.65;4.25;;;26.20;54.00;;;;;;5112869;28;20023;-75
2021/09/08 11:52:27;;;;;;;5.57;4.88;;;26.30;53.70;;;;;;5112438;28;20012;-75
2021/09/08 11:54:53;;;;;;;10.07;4.65;;;26.50;54.30;;;;;;5112713;28;20023;-75
2021/09/08 11:57:23;;;;;;;4.75;4.28;;;26.60;53.30;;;;;;5112431;28;20027;-74
2021/09/08 11:59:52;;;;;;;9.00;4.88;;;26.60;53.30;;;;;;5112641;28;20027;-75
2021/09/08 12:02:18;;;;;;;5.82;4.65;;;26.70;53.10;;;;;;5112417;28;20035;-75
2021/09/08 12:04:44;;;;;;;8.15;4.72;;;26.80;51.90;;;;;;5112280;28;20072;-75
2021/09/08 12:07:10;;;;;;;6.18;5.05;;;26.80;54.00;;;;;;5112362;28;20023;-74
2021/09/08 12:09:40;;;;;;;5.43;4.68;;;26.80;52.50;;;;;;5112381;28;20370;-75
2021/09/08 12:12:32;;;;;;;5.30;4.65;;;26.90;50.40;;;;;;5112220;28;20024;-74
2021/09/08 12:14:58;;;;;;;;;;;26.70;49.60;;;;;;5110675;28;20039;-75
2021/09/08 12:17:28;;;;;;;9.30;4.80;;;26.70;52.60;;;;;;5112166;28;19999;-75
2021/09/08 12:20:02;;;;;;;4.43;4.03;;;26.80;54.00;;;;;;5111903;28;20134;-74
2021/09/08 12:22:37;;;;;;;5.03;4.57;;;26.70;53.40;;;;;;5112046;28;20028;-74
2021/09/08 12:25:19;;;;;;;4.60;4.20;;;26.80;53.30;;;;;;5111961;28;20016;-74
2021/09/08 12:27:53;;;;;;;5.15;4.40;;;26.80;54.20;;;;;;5111841;28;20068;-74
2021/09/08 12:30:18;;;;;;;5.10;4.60;;;26.90;52.90;;;;;;5093816;28;20367;-74
2021/09/08 12:32:47;;;;;;;6.88;4.63;;;27.00;50.90;;;;;;5111823;28;20026;-74
2021/09/08 12:35:35;;;;;;;5.47;4.20;;;27.20;52.00;;;;;;5112027;28;20019;-74
2021/09/08 12:38:01;;;;;;;4.70;4.20;;;27.20;50.70;;;;;;5111916;28;20030;-74
2021/09/08 12:40:28;;;;;;;4.82;4.43;;;27.10;53.10;;;;;;5112076;28;20062;-74
2021/09/08 12:42:54;;;;;;;5.28;4.57;;;27.10;50.40;;;;;;5111721;28;20022;-74
2021/09/08 12:45:20;;;;;;;5.82;4.82;;;27.20;52.00;;;;;;5111879;28;20024;-74